createdAt,value
2018-12-02T00:00:48.937Z,81.99
2018-12-02T00:03:18.494Z,82.33
2018-12-02T00:05:45.951Z,82.41
2018-12-02T00:08:14.438Z,82.32
2018-12-02T00:10:41.899Z,82.40
2018-12-02T00:13:12.048Z,82.53
2018-12-02T00:15:40.642Z,82.16
2018-12-02T00:18:08.105Z,81.83
2018-12-02T00:20:35.536Z,82.55
2018-12-02T00:23:02.998Z,82.60
2018-12-02T00:25:30.506Z,82.01
2018-12-02T00:27:57.948Z,81.64
2018-12-02T00:30:25.440Z,81.84
2018-12-02T00:32:52.931Z,81.97
2018-12-02T00:35:21.074Z,82.01
2018-12-02T00:37:48.546Z,82.71
2018-12-02T00:40:15.979Z,83.33
2018-12-02T00:42:43.459Z,83.59
2018-12-02T00:45:10.923Z,82.67
2018-12-02T00:47:38.411Z,82.98
2018-12-02T00:50:05.855Z,83.56
2018-12-02T00:52:33.331Z,84.03
2018-12-02T00:55:00.816Z,83.64
2018-12-02T00:57:28.285Z,84.00
2018-12-02T00:59:56.475Z,84.74
2018-12-02T01:02:23.924Z,84.13
2018-12-02T01:04:53.386Z,83.09
2018-12-02T01:07:20.856Z,83.26
2018-12-02T01:09:48.330Z,83.32
2018-12-02T01:12:15.894Z,83.41
2018-12-02T01:14:43.321Z,83.40
2018-12-02T01:17:10.846Z,82.82
2018-12-02T01:19:38.365Z,83.16
2018-12-02T01:22:05.841Z,83.36
2018-12-02T01:24:33.337Z,82.61
2018-12-02T01:27:00.820Z,82.75
2018-12-02T01:29:28.307Z,82.83
2018-12-02T01:31:55.763Z,82.71
2018-12-02T01:34:23.227Z,82.74
2018-12-02T01:36:50.658Z,82.60
2018-12-02T01:39:18.805Z,82.94
2018-12-02T01:41:46.310Z,83.26
2018-12-02T01:44:13.785Z,83.88
2018-12-02T01:46:41.229Z,83.56
2018-12-02T01:49:08.715Z,83.57
2018-12-02T01:51:36.212Z,83.52
2018-12-02T01:54:05.503Z,83.75
2018-12-02T01:56:32.963Z,84.16
2018-12-02T01:59:00.388Z,84.34
2018-12-02T02:01:27.820Z,83.53
2018-12-02T02:03:55.311Z,83.75
2018-12-02T02:06:22.773Z,83.54
2018-12-02T02:08:50.286Z,83.55
2018-12-02T02:11:17.803Z,84.01
2018-12-02T02:13:45.403Z,84.27
2018-12-02T02:16:12.903Z,84.64
2018-12-02T02:18:40.360Z,84.50
2018-12-02T02:21:07.865Z,85.25
2018-12-02T02:23:35.369Z,85.11
2018-12-02T02:26:02.846Z,84.27
2018-12-02T02:28:30.303Z,85.28
2018-12-02T02:30:58.422Z,85.67
2018-12-02T02:33:25.880Z,85.42
2018-12-02T02:35:53.433Z,84.91
2018-12-02T02:38:20.839Z,85.01
2018-12-02T02:40:48.296Z,84.06
2018-12-02T02:43:15.727Z,83.97
2018-12-02T02:45:43.201Z,83.94
2018-12-02T02:48:10.629Z,84.22
2018-12-02T02:50:38.085Z,84.22
2018-12-02T02:53:06.729Z,83.75
2018-12-02T02:55:34.194Z,83.81
2018-12-02T02:58:01.664Z,83.63
2018-12-02T03:00:29.193Z,85.00
2018-12-02T03:03:00.859Z,83.86
2018-12-02T03:05:28.366Z,83.92
2018-12-02T03:07:55.905Z,84.01
2018-12-02T03:10:23.317Z,85.01
2018-12-02T03:12:51.845Z,84.97
2018-12-02T03:15:19.296Z,85.79
2018-12-02T03:17:46.726Z,85.18
2018-12-02T03:20:14.174Z,85.25
2018-12-02T03:22:41.595Z,85.42
2018-12-02T03:25:09.045Z,85.77
2018-12-02T03:27:36.492Z,85.30
2018-12-02T03:30:03.935Z,84.63
2018-12-02T03:32:31.382Z,85.13
2018-12-02T03:34:58.861Z,86.02
2018-12-02T03:37:26.324Z,86.97
2018-12-02T03:39:53.774Z,86.37
2018-12-02T03:42:21.241Z,85.87
2018-12-02T03:44:49.523Z,86.95
2018-12-02T03:47:16.956Z,86.26
2018-12-02T03:49:44.399Z,86.93
2018-12-02T03:52:11.826Z,86.58
2018-12-02T03:54:39.278Z,86.22
2018-12-02T03:57:06.727Z,86.59
2018-12-02T03:59:34.191Z,86.94
2018-12-02T04:02:01.619Z,86.10
2018-12-02T04:04:29.150Z,86.39
2018-12-02T04:06:56.557Z,86.72
2018-12-02T04:09:24.010Z,87.37
2018-12-02T04:11:51.437Z,86.90
2018-12-02T04:14:18.867Z,87.17
2018-12-02T04:16:46.326Z,86.69
2018-12-02T04:19:14.351Z,87.39
2018-12-02T04:21:41.815Z,88.29
2018-12-02T04:27:06.567Z,87.68
2018-12-02T04:29:34.015Z,87.92
2018-12-02T04:32:01.460Z,87.98
2018-12-02T04:34:28.888Z,87.86
2018-12-02T04:36:56.330Z,87.86
2018-12-02T04:39:23.771Z,87.21
2018-12-02T04:41:53.069Z,87.91
2018-12-02T04:44:20.491Z,87.60
2018-12-02T04:46:47.957Z,88.08
2018-12-02T04:49:15.412Z,87.40
2018-12-02T04:51:42.839Z,87.92
2018-12-02T04:54:10.290Z,88.06
2018-12-02T04:56:37.768Z,88.05
2018-12-02T04:59:05.198Z,88.08
2018-12-02T05:01:32.668Z,88.08
2018-12-02T05:04:00.107Z,87.80
2018-12-02T05:06:27.550Z,88.03
2018-12-02T05:08:55.001Z,87.69
2018-12-02T05:11:22.474Z,87.48
2018-12-02T05:13:49.912Z,87.82
2018-12-02T05:16:17.362Z,88.27
2018-12-02T05:18:44.801Z,88.08
2018-12-02T05:21:12.241Z,88.01
2018-12-02T05:23:39.686Z,88.08
2018-12-02T05:26:07.136Z,87.71
2018-12-02T05:28:34.592Z,87.64
2018-12-02T05:31:02.042Z,87.99
2018-12-02T05:33:29.471Z,88.80
2018-12-02T05:35:56.919Z,88.43
2018-12-02T05:38:24.337Z,88.48
2018-12-02T05:40:51.778Z,88.79
2018-12-02T05:43:19.199Z,88.52
2018-12-02T05:45:47.604Z,87.87
2018-12-02T05:48:16.789Z,88.12
2018-12-02T05:50:44.291Z,87.99
2018-12-02T05:53:11.708Z,88.14
2018-12-02T05:55:39.142Z,88.91
2018-12-02T05:58:06.573Z,88.69
2018-12-02T06:00:34.034Z,88.82
2018-12-02T06:03:01.460Z,87.90
2018-12-02T06:05:28.923Z,88.29
2018-12-02T06:07:56.367Z,87.76
2018-12-02T06:10:23.828Z,88.07
2018-12-02T06:12:51.272Z,87.72
2018-12-02T06:15:18.694Z,87.75
2018-12-02T06:17:46.166Z,87.92
2018-12-02T06:20:13.601Z,87.89
2018-12-02T06:22:41.049Z,88.78
2018-12-02T06:25:08.467Z,88.31
2018-12-02T06:27:35.889Z,88.29
2018-12-02T06:30:03.345Z,88.07
2018-12-02T06:32:30.816Z,87.95
2018-12-02T06:34:58.252Z,88.88
2018-12-02T06:37:25.699Z,88.12
2018-12-02T06:39:53.174Z,89.45
2018-12-02T06:42:20.588Z,89.11
2018-12-02T06:44:48.023Z,89.33
2018-12-02T06:47:15.460Z,88.85
2018-12-02T06:49:42.926Z,88.78
2018-12-02T06:52:10.337Z,88.49
2018-12-02T06:54:39.638Z,88.92
2018-12-02T06:57:09.046Z,89.53
2018-12-02T06:59:36.648Z,89.47
2018-12-02T07:02:05.509Z,89.17
2018-12-02T07:04:33.581Z,89.74
2018-12-02T07:07:01.139Z,90.14
2018-12-02T07:09:28.606Z,90.05
2018-12-02T07:11:56.039Z,90.26
2018-12-02T07:14:23.483Z,90.60
2018-12-02T07:16:50.899Z,90.33
2018-12-02T07:19:20.647Z,90.50
2018-12-02T07:21:49.323Z,90.05
2018-12-02T07:24:18.704Z,90.29
2018-12-02T07:26:46.294Z,89.96
2018-12-02T07:29:13.726Z,89.44
2018-12-02T07:31:41.169Z,89.77
2018-12-02T07:34:08.610Z,90.88
2018-12-02T07:36:36.062Z,90.34
2018-12-02T07:39:03.498Z,90.99
2018-12-02T07:41:30.932Z,90.65
2018-12-02T07:43:58.364Z,90.22
2018-12-02T07:46:25.788Z,90.89
2018-12-02T07:48:53.274Z,91.41
2018-12-02T07:51:21.534Z,91.05
2018-12-02T07:53:50.189Z,90.58
2018-12-02T07:56:17.638Z,90.62
2018-12-02T07:58:45.068Z,90.61
2018-12-02T08:01:13.552Z,91.09
2018-12-02T08:03:40.970Z,90.80
2018-12-02T08:06:08.410Z,90.89
2018-12-02T08:08:35.921Z,90.88
2018-12-02T08:11:03.399Z,90.19
2018-12-02T08:13:30.840Z,90.33
2018-12-02T08:16:01.877Z,90.83
2018-12-02T08:18:29.360Z,91.07
2018-12-02T08:20:56.783Z,90.81
2018-12-02T08:23:27.346Z,90.60
2018-12-02T08:25:54.784Z,90.76
2018-12-02T08:28:22.245Z,90.71
2018-12-02T08:30:50.289Z,91.06
2018-12-02T08:33:17.773Z,90.76
2018-12-02T08:35:45.243Z,90.75
2018-12-02T08:38:12.694Z,91.41
2018-12-02T08:40:40.162Z,90.94
2018-12-02T08:43:07.622Z,91.03
2018-12-02T08:45:35.928Z,91.04
2018-12-02T08:48:03.472Z,91.05
2018-12-02T08:50:30.908Z,91.40
2018-12-02T08:52:59.474Z,91.36
2018-12-02T08:55:26.956Z,90.64
2018-12-02T08:57:54.419Z,90.71
2018-12-02T09:00:21.858Z,90.69
2018-12-02T09:02:49.339Z,90.94
2018-12-02T09:05:16.759Z,90.90
2018-12-02T09:07:47.025Z,90.71
2018-12-02T09:10:15.435Z,91.35
2018-12-02T09:12:42.901Z,91.19
2018-12-02T09:15:10.341Z,91.06
2018-12-02T09:17:37.776Z,90.81
2018-12-02T09:20:07.093Z,91.77
2018-12-02T09:22:34.540Z,92.11
2018-12-02T09:25:01.994Z,92.13
2018-12-02T09:27:29.487Z,92.00
2018-12-02T09:29:56.922Z,92.01
2018-12-02T09:32:24.415Z,91.46
2018-12-02T09:34:51.840Z,91.27
2018-12-02T09:37:19.289Z,92.12
2018-12-02T09:39:47.495Z,92.47
2018-12-02T09:42:18.388Z,91.69
2018-12-02T09:44:45.870Z,91.45
2018-12-02T09:47:13.290Z,91.40
2018-12-02T09:49:40.797Z,92.07
2018-12-02T09:52:08.279Z,91.96
2018-12-02T09:54:39.867Z,91.78
2018-12-02T09:57:07.314Z,91.23
2018-12-02T09:59:34.781Z,91.03
2018-12-02T10:02:02.219Z,92.07
2018-12-02T10:04:30.892Z,92.62
2018-12-02T10:06:58.324Z,92.54
2018-12-02T10:09:27.106Z,93.02
2018-12-02T10:11:54.546Z,92.38
2018-12-02T10:14:22.023Z,93.04
2018-12-02T10:16:49.476Z,92.27
2018-12-02T10:19:16.904Z,92.68
2018-12-02T10:21:44.354Z,92.68
2018-12-02T10:24:11.790Z,92.78
2018-12-02T10:26:40.008Z,92.22
2018-12-02T10:29:07.462Z,93.38
2018-12-02T10:31:42.024Z,93.55
2018-12-02T10:51:19.106Z,94.05
2018-12-02T10:53:46.568Z,94.42
2018-12-02T10:56:14.045Z,94.33
2018-12-02T10:58:49.356Z,93.99
2018-12-02T11:01:21.746Z,94.16
2018-12-02T11:03:50.531Z,94.63
2018-12-02T11:06:18.013Z,94.18
2018-12-02T11:08:45.431Z,93.84
2018-12-02T11:11:12.897Z,94.05
2018-12-02T11:13:40.370Z,94.27
2018-12-02T11:16:07.824Z,93.81
2018-12-02T11:18:35.279Z,93.91
2018-12-02T11:21:02.728Z,94.47
2018-12-02T11:23:30.202Z,94.36
2018-12-02T11:25:57.654Z,94.20
2018-12-02T11:28:25.089Z,93.94
2018-12-02T11:30:52.536Z,94.53
2018-12-02T11:33:22.483Z,94.73
2018-12-02T11:35:50.065Z,95.20
2018-12-02T11:38:17.554Z,95.61
2018-12-02T11:40:45.005Z,95.37
2018-12-02T11:43:22.444Z,95.52
2018-12-02T11:45:50.167Z,95.62
2018-12-02T11:48:18.871Z,95.46
2018-12-02T11:50:46.344Z,95.18
2018-12-02T11:53:13.784Z,95.06
2018-12-02T11:55:42.307Z,95.03
2018-12-02T11:58:09.752Z,95.12
2018-12-02T12:00:37.191Z,95.20
2018-12-02T12:03:04.667Z,95.11
2018-12-02T12:05:34.056Z,95.29
2018-12-02T12:08:02.624Z,95.12
2018-12-02T12:10:30.085Z,95.23
2018-12-02T12:12:59.220Z,95.36
2018-12-02T12:15:28.260Z,95.60
2018-12-02T12:17:58.719Z,95.32
2018-12-02T12:20:26.157Z,94.97
2018-12-02T12:22:54.222Z,95.00
2018-12-02T12:25:24.933Z,95.34
2018-12-02T12:44:56.137Z,94.80
2018-12-02T12:47:34.298Z,94.66
2018-12-02T12:50:03.269Z,94.83
2018-12-02T12:52:30.706Z,94.71
2018-12-02T12:55:00.122Z,94.57
2018-12-02T12:57:27.631Z,94.47
2018-12-02T12:59:55.093Z,94.56
2018-12-02T13:02:32.856Z,94.34
2018-12-02T13:05:01.394Z,94.08
2018-12-02T13:07:28.834Z,93.95
2018-12-02T13:09:57.048Z,93.94
2018-12-02T13:12:24.615Z,93.42
2018-12-02T13:14:54.016Z,93.42
2018-12-02T13:17:21.518Z,93.33
2018-12-02T13:19:50.398Z,93.52
2018-12-02T13:22:17.882Z,93.17
2018-12-02T13:24:45.328Z,93.68
2018-12-02T13:27:12.798Z,93.78
2018-12-02T13:29:40.834Z,93.55
2018-12-02T13:32:09.219Z,93.50
2018-12-02T13:34:36.717Z,93.25
2018-12-02T13:37:05.033Z,93.04
2018-12-02T13:39:32.479Z,92.97
2018-12-02T13:41:59.956Z,92.70
2018-12-02T13:44:27.380Z,92.75
2018-12-02T13:46:54.846Z,92.39
2018-12-02T13:49:53.574Z,92.07
2018-12-02T13:52:52.384Z,91.85
2018-12-02T13:55:52.113Z,92.24
2018-12-02T13:58:54.404Z,92.21
2018-12-02T14:01:52.713Z,91.97
2018-12-02T14:04:56.261Z,92.11
2018-12-02T14:07:24.767Z,91.95
2018-12-02T14:09:55.411Z,91.90
2018-12-02T14:12:24.011Z,91.83
2018-12-02T14:14:52.209Z,91.72
2018-12-02T14:17:21.929Z,91.54
2018-12-02T14:19:50.009Z,91.72
2018-12-02T14:22:19.219Z,91.82
2018-12-02T14:24:48.728Z,92.26
2018-12-02T14:27:18.013Z,92.28
2018-12-02T14:29:48.425Z,92.34
2018-12-02T14:32:16.928Z,92.60
2018-12-02T14:34:45.944Z,92.56
2018-12-02T14:37:13.369Z,92.70
2018-12-02T14:39:43.431Z,93.04
2018-12-02T14:42:10.903Z,93.44
2018-12-02T14:44:38.405Z,93.69
2018-12-02T14:47:06.351Z,93.49
2018-12-02T14:49:35.855Z,92.89
2018-12-02T14:52:04.624Z,93.10
2018-12-02T14:54:33.123Z,93.16
2018-12-02T14:57:00.608Z,92.81
2018-12-02T14:59:29.766Z,93.05
2018-12-02T15:01:57.258Z,93.25
2018-12-02T15:04:25.198Z,92.95
2018-12-02T15:06:52.670Z,93.45
2018-12-02T15:09:20.236Z,93.22
2018-12-02T15:11:48.238Z,93.45
2018-12-02T15:14:16.484Z,93.48
2018-12-02T15:31:02.743Z,94.04
2018-12-02T15:33:30.204Z,94.01
2018-12-02T15:35:57.626Z,93.96
2018-12-02T15:38:25.088Z,94.00
2018-12-02T15:40:56.448Z,94.14
2018-12-02T15:43:23.919Z,93.87
2018-12-02T15:45:51.830Z,94.04
2018-12-02T15:48:19.273Z,93.76
2018-12-02T15:50:50.406Z,93.73
2018-12-02T16:10:21.386Z,94.26
2018-12-02T16:12:52.507Z,94.13
2018-12-02T16:15:21.105Z,93.97
2018-12-02T16:17:51.463Z,94.23
2018-12-02T16:20:21.786Z,94.77
2018-12-02T16:22:51.314Z,94.66
2018-12-02T16:25:24.873Z,94.81
2018-12-02T16:27:53.589Z,94.61
2018-12-02T16:30:22.309Z,94.06
2018-12-02T16:32:50.933Z,93.96
2018-12-02T16:35:19.506Z,93.89
2018-12-02T16:37:47.991Z,93.60
2018-12-02T16:40:22.586Z,93.56
2018-12-02T16:42:51.701Z,93.23
2018-12-02T16:45:20.147Z,93.11
2018-12-02T16:47:48.979Z,93.02
2018-12-02T16:50:17.593Z,93.19
2018-12-02T16:52:47.932Z,93.28
2018-12-02T16:55:16.490Z,93.21
2018-12-02T16:57:48.040Z,92.93
2018-12-02T17:00:16.270Z,92.89
2018-12-02T17:02:43.741Z,92.52
2018-12-02T17:05:11.309Z,92.90
2018-12-02T17:07:39.566Z,92.59
2018-12-02T17:10:07.015Z,92.78
2018-12-02T17:12:34.484Z,93.06
2018-12-02T17:15:02.654Z,93.70
2018-12-02T17:17:34.510Z,93.47
2018-12-02T17:20:02.990Z,93.56
2018-12-02T17:22:30.504Z,93.71
2018-12-02T17:24:57.962Z,92.73
2018-12-02T17:27:26.921Z,92.97
2018-12-02T17:29:55.024Z,92.61
2018-12-02T17:32:23.202Z,92.78
2018-12-02T17:34:50.679Z,92.80
2018-12-02T17:37:18.359Z,92.66
2018-12-02T17:39:45.960Z,92.10
2018-12-02T17:42:16.532Z,91.86
2018-12-02T17:44:45.814Z,92.02
2018-12-02T17:47:13.428Z,91.93
2018-12-02T17:49:40.922Z,92.27
2018-12-02T17:52:08.386Z,92.41
2018-12-02T17:54:35.868Z,92.64
2018-12-02T17:57:03.357Z,92.87
2018-12-02T17:59:30.919Z,93.45
2018-12-02T18:01:58.416Z,93.67
2018-12-02T18:04:25.867Z,94.03
2018-12-02T18:06:53.676Z,93.72
2018-12-02T18:09:21.649Z,93.60
2018-12-02T18:11:49.168Z,93.39
2018-12-02T18:14:19.152Z,93.35
2018-12-02T18:16:50.180Z,93.19
2018-12-02T18:19:16.011Z,93.12
2018-12-02T18:21:44.199Z,93.16
2018-12-02T18:24:13.040Z,93.24
2018-12-02T18:26:41.414Z,93.47
2018-12-02T18:29:09.002Z,93.19
2018-12-02T18:31:36.450Z,92.90
2018-12-02T18:34:05.496Z,92.98
2018-12-02T18:36:32.929Z,92.20
2018-12-02T18:39:00.930Z,92.48
2018-12-02T18:41:28.401Z,92.34
2018-12-02T18:43:55.843Z,92.11
2018-12-02T18:46:23.344Z,91.97
2018-12-02T18:51:24.284Z,91.78
2018-12-02T18:53:51.773Z,91.59
2018-12-02T18:56:19.261Z,91.27
2018-12-02T18:58:46.714Z,91.29
2018-12-02T19:01:14.219Z,91.17
2018-12-02T19:03:41.754Z,91.36
2018-12-02T19:06:10.227Z,90.74
2018-12-02T19:08:39.735Z,90.94
2018-12-02T19:11:09.066Z,90.72
2018-12-02T19:13:43.351Z,90.36
2018-12-02T19:16:05.603Z,90.20
2018-12-02T19:18:33.174Z,90.10
2018-12-02T19:21:00.647Z,89.91
2018-12-02T19:23:28.175Z,89.91
2018-12-02T19:25:57.165Z,89.75
2018-12-02T19:28:24.651Z,89.78
2018-12-02T19:30:53.213Z,89.87
2018-12-02T19:33:20.754Z,89.27
2018-12-02T19:35:48.228Z,89.39
2018-12-02T19:38:15.713Z,89.20
2018-12-02T19:40:44.043Z,89.51
2018-12-02T19:43:11.501Z,89.76
2018-12-02T19:45:39.778Z,89.59
2018-12-02T19:48:07.219Z,89.87
2018-12-02T19:50:35.526Z,89.54
2018-12-02T19:53:02.995Z,89.54
2018-12-02T19:55:30.429Z,89.82
2018-12-02T19:57:57.909Z,89.42
2018-12-02T20:00:25.351Z,89.53
2018-12-02T20:02:52.803Z,89.34
2018-12-02T20:05:20.253Z,89.48
2018-12-02T20:07:47.734Z,89.67
2018-12-02T20:10:15.193Z,89.35
2018-12-02T20:12:42.639Z,88.68
2018-12-02T20:15:10.116Z,88.73
2018-12-02T20:17:37.560Z,88.90
2018-12-02T20:20:05.042Z,89.44
2018-12-02T20:22:32.516Z,89.13
2018-12-02T20:24:59.992Z,89.75
2018-12-02T20:27:27.435Z,90.47
2018-12-02T20:29:54.883Z,90.89
2018-12-02T20:32:22.334Z,90.24
2018-12-02T20:34:49.828Z,90.62
2018-12-02T20:37:18.084Z,91.42
2018-12-02T20:39:46.008Z,92.30
2018-12-02T20:42:13.454Z,92.25
2018-12-02T20:44:40.890Z,91.65
2018-12-02T20:47:08.346Z,92.16
2018-12-02T20:49:35.803Z,91.14
2018-12-02T20:52:03.276Z,92.13
2018-12-02T20:54:30.726Z,92.09
2018-12-02T20:56:58.181Z,92.06
2018-12-02T20:59:25.664Z,91.75
2018-12-02T21:01:53.137Z,92.48
2018-12-02T21:04:20.563Z,93.04
2018-12-02T21:06:48.012Z,92.71
2018-12-02T21:09:15.455Z,92.72
2018-12-02T21:11:44.697Z,92.98
2018-12-02T21:14:12.152Z,92.29
2018-12-02T21:16:41.895Z,92.64
2018-12-02T21:19:09.329Z,93.28
2018-12-02T21:21:38.156Z,93.36
2018-12-02T21:24:05.617Z,93.53
2018-12-02T21:26:34.029Z,93.84
2018-12-02T21:29:01.476Z,93.82
2018-12-02T21:31:28.969Z,94.04
2018-12-02T21:33:56.411Z,93.53
2018-12-02T21:36:24.995Z,93.42
2018-12-02T21:38:52.541Z,92.82
2018-12-02T21:41:19.995Z,92.89
2018-12-02T21:43:47.451Z,93.59
2018-12-02T21:46:14.891Z,93.36
2018-12-02T21:48:42.326Z,93.01
2018-12-02T21:51:09.784Z,93.22
2018-12-02T21:53:37.245Z,93.37
2018-12-02T21:56:04.666Z,93.31
2018-12-02T21:58:32.148Z,93.00
2018-12-02T22:01:00.339Z,92.82
2018-12-02T22:03:27.790Z,92.41
2018-12-02T22:05:55.230Z,92.98
2018-12-02T22:08:23.093Z,93.21
2018-12-02T22:10:51.521Z,93.48
2018-12-02T22:13:20.025Z,93.51
2018-12-02T22:15:47.446Z,92.97
2018-12-02T22:18:15.414Z,92.87
2018-12-02T22:20:47.541Z,92.82
2018-12-02T22:23:15.750Z,93.34
2018-12-02T22:25:43.197Z,93.44
2018-12-02T22:28:13.269Z,93.73
2018-12-02T22:30:40.807Z,93.27
2018-12-02T22:33:08.641Z,93.34
2018-12-02T22:35:36.107Z,92.87
2018-12-02T22:38:04.193Z,93.12
2018-12-02T22:40:31.666Z,93.36
2018-12-02T22:42:59.120Z,93.55
2018-12-02T22:45:26.594Z,93.76
2018-12-02T22:47:54.035Z,93.44
2018-12-02T22:50:21.500Z,93.40
2018-12-02T22:52:48.940Z,93.22
2018-12-02T22:55:16.425Z,93.28
2018-12-02T22:57:44.265Z,93.96
2018-12-02T23:00:11.728Z,94.36
2018-12-02T23:02:39.194Z,94.22
2018-12-02T23:05:06.669Z,94.16
2018-12-02T23:07:35.272Z,94.17
2018-12-02T23:10:02.808Z,93.84
2018-12-02T23:12:32.444Z,94.04
2018-12-02T23:14:59.980Z,93.84
2018-12-02T23:17:29.045Z,93.95
2018-12-02T23:19:56.590Z,94.02
2018-12-02T23:22:25.548Z,93.97
2018-12-02T23:24:53.124Z,93.90
2018-12-02T23:27:20.580Z,93.53
2018-12-02T23:29:48.019Z,93.81
2018-12-02T23:32:16.461Z,93.40
2018-12-02T23:34:45.777Z,94.07
2018-12-02T23:37:20.578Z,94.06
2018-12-02T23:39:48.801Z,94.04
2018-12-02T23:42:17.080Z,93.90
2018-12-02T23:44:45.559Z,93.75
2018-12-02T23:47:13.068Z,94.07
2018-12-02T23:49:42.118Z,93.83
2018-12-02T23:52:09.644Z,93.97
2018-12-02T23:54:37.130Z,97.16
2018-12-02T23:57:04.590Z,94.15
2018-12-02T23:59:32.036Z,94.07
